Time;durP1;ratioP1;P1;durP2;ratioP2;P2;SDS_P1;SDS_P2;PMS_P1;PMS_P2;Temp;Humidity;BMP_temperature;BMP_pressure;BME280_temperature;BME280_humidity;BME280_pressure;Samples;Min_cycle;Max_cycle;Signal;HPM_P1;HPM_P2
2022/08/05 00:01:21;;;;;;;6.25;3.45;;;;;;;19.93;66.14;97043.53;5007971;28;20046;-65
2022/08/05 00:03:54;;;;;;;4.10;3.70;;;;;;;19.92;66.69;97041.94;5021915;28;20050;-60
2022/08/05 00:06:23;;;;;;;4.38;3.40;;;;;;;19.78;66.71;97040.19;5007724;28;20452;-60
2022/08/05 00:08:59;;;;;;;7.13;4.15;;;;;;;19.80;67.17;97031.34;5007523;28;20162;-65
2022/08/05 00:11:27;;;;;;;4.20;3.78;;;;;;;19.40;67.63;97005.97;5007252;28;20498;-61
2022/08/05 00:14:02;;;;;;;7.72;3.65;;;;;;;19.64;67.46;97039.66;5007739;28;20115;-63
2022/08/05 00:16:43;;;;;;;4.72;3.55;;;;;;;19.63;67.58;97038.09;5007564;28;20124;-64
2022/08/05 00:19:21;;;;;;;4.18;3.60;;;;;;;19.45;67.85;97015.94;5007418;28;20050;-64
2022/08/05 00:21:51;;;;;;;3.75;3.45;;;;;;;18.87;68.16;96941.50;5007524;28;20049;-65
2022/08/05 00:24:20;;;;;;;6.60;3.65;;;;;;;19.41;68.81;97038.47;5007543;28;20074;-62
2022/08/05 00:26:51;;;;;;;4.60;3.35;;;;;;;19.37;69.21;97031.31;5007410;28;20123;-60
2022/08/05 00:29:19;;;;;;;5.93;3.88;;;;;;;18.71;70.20;96954.63;5022020;28;20058;-65
2022/08/05 00:31:51;;;;;;;4.05;3.67;;;;;;;18.85;70.26;96976.81;5007755;28;20082;-64
2022/08/05 00:34:39;;;;;;;4.63;4.07;;;;;;;19.19;70.36;97034.41;5006675;28;20123;-64
2022/08/05 00:37:25;;;;;;;4.82;3.92;;;;;;;19.07;71.14;97028.59;5006811;28;20089;-60
2022/08/05 00:40:12;;;;;;;5.60;4.13;;;;;;;18.65;71.17;96985.16;5007337;28;20050;-64
2022/08/05 00:42:43;;;;;;;6.88;3.88;;;;;;;19.01;70.92;97013.47;5007055;28;20578;-59
2022/08/05 00:45:15;;;;;;;4.57;3.65;;;;;;;19.03;70.78;97013.84;5007089;28;20108;-63
2022/08/05 00:47:54;;;;;;;5.22;3.88;;;;;;;19.18;70.45;97024.41;5006935;28;20057;-59
2022/08/05 00:50:31;;;;;;;4.35;3.83;;;;;;;18.50;71.05;96946.53;5006949;28;20077;-65
2022/08/05 00:52:58;;;;;;;5.63;3.50;;;;;;;18.76;71.42;96985.78;5006654;28;20440;-65
2022/08/05 00:55:25;;;;;;;5.55;3.53;;;;;;;18.98;71.92;97017.94;5005253;28;20050;-65
2022/08/05 00:58:12;;;;;;;3.45;3.15;;;;;;;18.97;71.89;97019.13;5006884;28;20124;-59
2022/08/05 01:00:39;;;;;;;4.00;3.60;;;;;;;18.98;71.57;97003.09;5007082;28;20116;-61
2022/08/05 01:03:09;;;;;;;4.88;4.18;;;;;;;18.66;71.87;96969.13;5006717;28;20060;-60
2022/08/05 01:05:48;;;;;;;4.13;3.72;;;;;;;18.86;72.64;97017.72;5007072;28;20054;-65
2022/08/05 01:08:17;;;;;;;3.90;3.50;;;;;;;18.75;73.04;97017.88;5006619;28;20058;-62
2022/08/05 01:11:10;;;;;;;6.28;4.55;;;;;;;18.68;73.46;97014.41;5005291;28;20651;-60
2022/08/05 01:13:47;;;;;;;3.85;3.55;;;;;;;18.26;73.96;96972.91;5006472;28;20050;-64
2022/08/05 01:16:51;;;;;;;5.25;4.30;;;;;;;18.44;76.36;97013.53;5006148;28;20781;-62
2022/08/05 01:19:21;;;;;;;6.13;3.92;;;;;;;18.48;76.13;97019.88;5006300;28;20053;-60
2022/08/05 01:22:17;;;;;;;4.47;4.07;;;;;;;18.57;75.17;97025.78;5006037;28;20050;-60
2022/08/05 01:25:31;;;;;;;4.68;4.07;;;;;;;18.67;74.85;97016.41;5006105;28;20072;-59
2022/08/05 01:28:44;;;;;;;10.27;4.38;;;;;;;18.69;74.42;97007.56;5002601;28;20425;-63
2022/08/05 01:31:36;;;;;;;6.07;4.00;;;;;;;17.87;74.57;96875.34;5006017;28;20516;-64
2022/08/05 01:34:35;;;;;;;4.40;3.90;;;;;;;18.81;74.34;97016.19;5006428;28;20069;-64
2022/08/05 01:37:16;;;;;;;4.05;3.65;;;;;;;18.79;73.35;97001.78;5006056;28;20049;-59
2022/08/05 01:39:55;;;;;;;4.07;3.72;;;;;;;18.85;73.13;97016.94;5006196;28;20289;-64
2022/08/05 01:42:26;;;;;;;4.40;3.63;;;;;;;18.83;73.74;97019.38;5005834;28;20057;-64
2022/08/05 01:44:59;;;;;;;5.13;3.85;;;;;;;18.82;73.21;97017.78;5006175;28;20050;-64
2022/08/05 01:47:31;;;;;;;5.05;4.53;;;;;;;18.34;73.88;96958.34;5004269;28;20104;-64
2022/08/05 01:50:17;;;;;;;6.63;3.83;;;;;;;18.46;74.58;96999.91;5006305;28;20622;-65
2022/08/05 01:52:58;;;;;;;5.30;4.40;;;;;;;18.61;74.91;97012.47;5006340;28;20058;-60
2022/08/05 01:55:28;;;;;;;4.75;4.28;;;;;;;18.64;74.83;97022.88;5006086;28;20057;-65
2022/08/05 01:57:56;;;;;;;4.18;3.78;;;;;;;18.74;74.15;97016.31;5005443;28;20069;-64
2022/08/05 02:00:49;;;;;;;4.53;3.97;;;;;;;18.71;74.38;97013.53;5005548;28;20045;-60
2022/08/05 02:03:31;;;;;;;4.25;3.83;;;;;;;18.69;74.60;97007.56;5005986;28;20070;-59
2022/08/05 02:06:02;;;;;;;5.47;3.80;;;;;;;18.62;75.03;97013.28;5003825;28;20120;-63
2022/08/05 02:08:49;;;;;;;4.22;3.83;;;;;;;18.65;75.05;97010.41;5004419;28;20116;-64
2022/08/05 02:11:27;;;;;;;5.20;3.92;;;;;;;18.67;74.89;97004.41;5005185;28;20046;-59
2022/08/05 02:14:11;;;;;;;4.82;4.00;;;;;;;18.44;75.31;96991.09;5004626;28;20436;-59
2022/08/05 02:16:45;;;;;;;5.03;4.53;;;;;;;18.13;75.40;96953.03;5004465;28;20049;-62
2022/08/05 02:19:31;;;;;;;4.53;4.05;;;;;;;18.45;75.68;97020.72;5004371;28;20061;-59
2022/08/05 02:22:25;;;;;;;4.55;4.15;;;;;;;18.39;75.70;97008.41;5005334;28;20077;-58
2022/08/05 02:25:07;;;;;;;5.18;3.83;;;;;;;18.37;75.65;97008.00;5005645;28;20057;-59
2022/08/05 02:27:40;;;;;;;5.35;4.35;;;;;;;18.34;76.08;97008.03;5004846;28;20056;-59
2022/08/05 02:30:34;;;;;;;5.30;4.18;;;;;;;18.17;77.00;96998.66;5005002;28;20058;-63
2022/08/05 02:33:02;;;;;;;5.13;4.20;;;;;;;17.79;76.66;96927.09;5003857;28;20535;-59
2022/08/05 02:35:34;;;;;;;4.00;3.65;;;;;;;18.22;76.68;96995.41;5005099;28;20065;-64
2022/08/05 02:38:11;;;;;;;4.72;4.15;;;;;;;18.24;77.09;96998.56;5005195;28;20079;-63
2022/08/05 02:40:45;;;;;;;4.57;4.15;;;;;;;18.11;76.69;96989.13;5003641;28;20069;-58
2022/08/05 02:43:14;;;;;;;4.63;4.22;;;;;;;18.06;77.12;96984.00;5004904;28;20367;-60
2022/08/05 02:45:42;;;;;;;4.63;4.15;;;;;;;18.00;78.30;96999.69;5003257;28;20058;-58
2022/08/05 02:48:22;;;;;;;4.55;4.10;;;;;;;17.93;78.55;97005.38;5004806;28;20064;-63
2022/08/05 02:50:58;;;;;;;8.55;3.97;;;;;;;17.75;79.64;97004.81;5005356;28;20074;-63
2022/08/05 02:53:27;;;;;;;5.28;4.57;;;;;;;17.49;79.65;96952.28;5004523;28;20054;-61
2022/08/05 02:56:07;;;;;;;5.75;3.83;;;;;;;17.89;79.51;97004.63;5018726;28;20111;-64
2022/08/05 02:58:35;;;;;;;4.70;3.85;;;;;;;17.13;79.90;96901.47;5004940;28;20054;-63
2022/08/05 03:01:17;;;;;;;5.82;3.97;;;;;;;17.67;80.30;97001.28;5019021;28;20082;-63
2022/08/05 03:03:49;;;;;;;5.93;4.07;;;;;;;17.65;80.82;97000.91;5004634;28;20058;-63
2022/08/05 03:06:37;;;;;;;5.07;4.57;;;;;;;17.57;80.93;96981.78;5004988;28;20054;-62
2022/08/05 03:09:24;;;;;;;5.45;4.35;;;;;;;17.33;81.30;96952.03;5009247;28;20096;-59
2022/08/05 03:12:04;;;;;;;5.25;4.03;;;;;;;17.63;81.63;97005.34;5024686;28;20522;-58
2022/08/05 03:14:31;;;;;;;7.90;4.50;;;;;;;17.58;82.42;97014.19;5024439;28;20483;-60
2022/08/05 03:16:58;;;;;;;7.95;4.35;;;;;;;17.56;82.37;97008.22;5024326;28;20125;-62
2022/08/05 03:19:26;;;;;;;7.05;4.78;;;;;;;17.46;82.49;96992.31;5024263;28;20570;-59
2022/08/05 03:22:02;;;;;;;4.90;4.20;;;;;;;17.29;81.87;96951.28;5024469;28;20061;-64
2022/08/05 03:24:44;;;;;;;4.97;4.47;;;;;;;17.64;81.89;96998.53;5023397;28;20053;-59
2022/08/05 03:27:12;;;;;;;5.60;4.93;;;;;;;17.81;81.29;97017.91;5025840;28;20072;-59
2022/08/05 03:29:41;;;;;;;6.65;4.88;;;;;;;17.52;81.10;96969.06;5028159;28;20111;-63
2022/08/05 03:32:29;;;;;;;6.43;4.63;;;;;;;17.64;80.66;96959.31;5028097;28;20054;-60
2022/08/05 03:34:56;;;;;;;10.00;4.80;;;;;;;18.10;80.06;96998.75;5026941;28;20049;-62
2022/08/05 03:37:23;;;;;;;6.75;4.40;;;;;;;17.85;79.81;96950.63;5026480;28;20866;-63
2022/08/05 03:39:55;;;;;;;5.40;4.90;;;;;;;17.84;79.48;96968.66;5028154;28;20049;-64
2022/08/05 03:42:28;;;;;;;7.13;4.80;;;;;;;18.23;79.12;97125.97;5027964;28;20060;-58
2022/08/05 03:44:58;;;;;;;8.45;5.63;;;;;;;18.22;79.38;97009.41;5026627;28;20492;-64
2022/08/05 03:47:27;;;;;;;7.95;4.57;;;;;;;18.25;78.83;97010.56;5027544;28;20046;-62
2022/08/05 03:50:00;;;;;;;8.60;5.03;;;;;;;17.99;78.36;96975.66;5028070;28;20053;-64
2022/08/05 03:52:32;;;;;;;9.98;5.72;;;;;;;18.46;78.00;97013.94;5026362;28;20098;-59
2022/08/05 03:55:31;;;;;;;7.40;4.32;;;;;;;18.39;77.95;97008.41;5027794;28;20107;-59
2022/08/05 03:58:21;;;;;;;4.20;3.80;;;;;;;18.43;77.89;97014.75;5027354;28;20343;-61
2022/08/05 04:00:56;;;;;;;5.03;3.70;;;;;;;18.55;77.62;97008.56;5027760;28;20142;-60
2022/08/05 04:03:27;;;;;;;4.55;3.75;;;;;;;18.77;76.11;97000.63;5027705;28;20067;-65
2022/08/05 04:05:56;;;;;;;8.43;4.10;;;;;;;18.48;75.64;96935.72;5027428;28;20122;-60
2022/08/05 04:08:26;;;;;;;6.25;4.53;;;;;;;18.64;75.36;96951.91;5027555;28;20577;-59
2022/08/05 04:11:04;;;;;;;4.55;3.90;;;;;;;18.97;75.29;97007.91;5027583;28;20061;-61
2022/08/05 04:13:31;;;;;;;6.10;4.50;;;;;;;19.03;75.18;97011.03;5027226;28;20059;-59
2022/08/05 04:16:17;;;;;;;6.18;3.67;;;;;;;19.16;74.80;97006.38;5027407;28;20049;-59
2022/08/05 04:18:51;;;;;;;4.15;3.50;;;;;;;19.14;74.32;96984.34;5027358;28;20111;-65
2022/08/05 04:21:20;;;;;;;5.45;4.05;;;;;;;18.87;74.78;96940.72;5026998;28;20057;-60
2022/08/05 04:24:07;;;;;;;10.52;4.30;;;;;;;18.63;74.57;96886.59;5027280;28;20130;-59
2022/08/05 04:26:34;;;;;;;12.52;4.93;;;;;;;19.32;74.38;96959.56;5027023;28;20056;-65
2022/08/05 04:29:02;;;;;;;5.80;4.90;;;;;;;19.62;73.79;96991.56;5025691;28;20057;-61
2022/08/05 04:31:33;;;;;;;8.52;4.85;;;;;;;19.87;72.28;96991.84;5026901;28;20523;-65
2022/08/05 04:34:04;;;;;;;11.88;4.90;;;;;;;19.91;72.30;96986.94;5027247;28;20100;-62
2022/08/05 04:36:51;;;;;;;9.45;5.03;;;;;;;20.16;70.98;96981.59;5026849;28;20545;-64
2022/08/05 04:39:19;;;;;;;9.32;6.15;;;;;;;20.22;70.05;96963.78;5026482;28;20061;-59
2022/08/05 04:41:48;;;;;;;7.78;5.57;;;;;;;20.39;70.15;96987.16;5026572;28;20056;-65
2022/08/05 04:44:17;;;;;;;4.93;4.43;;;;;;;20.38;69.89;96977.09;5026537;28;20053;-59
2022/08/05 04:46:59;;;;;;;5.03;4.60;;;;;;;20.51;70.00;96994.91;5026474;28;20068;-64
2022/08/05 04:49:35;;;;;;;5.47;4.60;;;;;;;20.31;69.59;96937.88;5026684;28;20064;-58
2022/08/05 04:52:22;;;;;;;5.90;4.30;;;;;;;20.85;68.84;96978.38;5026576;28;20532;-63
2022/08/05 04:54:52;;;;;;;5.03;4.43;;;;;;;21.00;68.18;96979.66;5026695;28;20419;-64
2022/08/05 04:57:23;;;;;;;5.93;4.55;;;;;;;21.15;68.17;96980.88;5025884;28;20081;-58
2022/08/05 04:59:56;;;;;;;10.18;4.32;;;;;;;21.32;67.32;96974.03;5026600;28;20459;-64
2022/08/05 05:02:25;;;;;;;6.63;4.40;;;;;;;21.34;66.50;96960.25;5026079;28;20049;-59
2022/08/05 05:05:04;;;;;;;5.43;4.40;;;;;;;21.35;65.27;96922.41;5026539;28;20511;-58
2022/08/05 05:07:52;;;;;;;4.97;4.50;;;;;;;21.86;65.30;96974.97;5026114;28;20119;-61
2022/08/05 05:10:27;;;;;;;7.72;4.63;;;;;;;21.94;65.38;96962.22;5024760;28;20420;-59
2022/08/05 05:12:55;;;;;;;7.13;4.13;;;;;;;21.68;64.58;96901.34;5026058;28;20064;-65
2022/08/05 05:15:24;;;;;;;9.32;4.13;;;;;;;22.21;64.59;96948.53;5025915;28;20123;-65
2022/08/05 05:18:15;;;;;;;5.78;4.32;;;;;;;22.44;64.37;96956.72;5025786;28;20547;-62
2022/08/05 05:20:59;;;;;;;18.75;5.13;;;;;;;22.25;63.47;96894.81;5026215;28;20852;-64
2022/08/05 05:23:25;;;;;;;13.10;5.00;;;;;;;22.62;63.91;96955.38;5026151;28;20049;-66
2022/08/05 05:26:12;;;;;;;22.10;5.68;;;;;;;22.96;63.00;96947.78;5024945;28;20565;-66
2022/08/05 05:28:40;;;;;;;11.68;5.40;;;;;;;22.78;62.42;96904.44;5025469;28;20049;-61
2022/08/05 05:31:10;;;;;;;11.68;4.95;;;;;;;23.22;61.92;96946.50;5026398;28;20519;-58
2022/08/05 05:33:37;;;;;;;19.10;6.13;;;;;;;23.45;61.09;96948.97;5023862;28;20061;-59
2022/08/05 05:36:23;;;;;;;11.20;5.38;;;;;;;23.66;60.30;96947.41;5024274;28;20053;-61
2022/08/05 05:38:55;;;;;;;12.13;5.13;;;;;;;23.92;59.97;96942.44;5025720;28;20046;-66
2022/08/05 05:41:22;;;;;;;7.28;4.32;;;;;;;24.10;58.50;96943.38;5025911;28;20486;-58
2022/08/05 05:43:49;;;;;;;8.15;4.68;;;;;;;24.25;57.59;96940.78;5025612;28;20061;-64
2022/08/05 05:46:25;;;;;;;14.52;5.25;;;;;;;24.31;57.98;96941.75;5025395;28;20061;-58
2022/08/05 05:48:52;;;;;;;11.27;5.40;;;;;;;24.11;58.45;96910.97;5025177;28;20063;-61
2022/08/05 05:51:23;;;;;;;6.65;4.60;;;;;;;23.86;61.88;96933.72;5023518;28;20095;-65
2022/08/05 05:53:52;;;;;;;7.72;4.80;;;;;;;23.83;61.70;96943.13;5024925;28;20490;-65
2022/08/05 05:56:29;;;;;;;6.55;5.28;;;;;;;23.89;62.36;96938.47;5024195;28;20064;-58
2022/08/05 05:59:04;;;;;;;8.65;5.00;;;;;;;24.10;62.02;96949.03;5025405;28;20045;-64
2022/08/05 06:01:33;;;;;;;;;;;;;;;24.25;61.49;96952.13;5025690;28;20049;-57
2022/08/05 06:04:05;;;;;;;6.63;4.30;;;;;;;24.28;61.66;96959.69;5025130;28;20015;-58
2022/08/05 06:06:33;;;;;;;6.22;4.72;;;;;;;24.32;62.77;96955.47;5023544;28;20151;-65
2022/08/05 06:09:00;;;;;;;5.85;4.72;;;;;;;24.47;62.28;96950.81;5023347;28;20075;-60
2022/08/05 06:11:29;;;;;;;6.82;5.00;;;;;;;24.36;61.63;96893.81;5025072;28;20127;-60
2022/08/05 06:13:56;;;;;;;19.40;6.55;;;;;;;24.66;61.09;96924.19;5024735;28;20535;-65
2022/08/05 06:16:26;;;;;;;11.20;5.65;;;;;;;24.85;60.72;96931.50;5023506;28;20053;-65
2022/08/05 06:19:04;;;;;;;5.32;4.53;;;;;;;24.62;61.56;96946.19;5025020;28;20061;-64
2022/08/05 06:21:35;;;;;;;9.25;6.78;;;;;;;24.84;61.17;96946.94;5024805;28;20128;-65
2022/08/05 06:24:06;;;;;;;6.35;5.32;;;;;;;25.02;61.03;96946.22;5024897;28;20049;-66
2022/08/05 06:26:41;;;;;;;13.82;5.38;;;;;;;24.66;61.92;96890.19;5024810;28;20049;-65
2022/08/05 06:29:19;;;;;;;8.43;5.00;;;;;;;25.31;61.00;96941.69;5024701;28;20140;-58
2022/08/05 06:32:06;;;;;;;6.72;5.00;;;;;;;25.75;59.02;96949.97;5024737;28;20057;-58
2022/08/05 06:34:54;;;;;;;8.27;5.00;;;;;;;25.94;58.07;96949.47;5025178;28;20103;-59
2022/08/05 06:37:25;;;;;;;6.10;5.00;;;;;;;26.25;57.45;96937.97;5024251;28;20468;-64
2022/08/05 06:40:13;;;;;;;6.63;5.30;;;;;;;26.20;57.28;96893.16;5024395;28;20053;-58
2022/08/05 06:42:49;;;;;;;8.55;5.20;;;;;;;26.67;56.99;96944.50;5024260;28;20090;-59
2022/08/05 06:45:18;;;;;;;7.55;5.15;;;;;;;26.56;56.24;96898.72;5024555;28;20064;-57
2022/08/05 06:48:05;;;;;;;5.82;5.32;;;;;;;27.10;55.21;96944.00;5024273;28;20057;-63
2022/08/05 06:50:51;;;;;;;7.00;5.88;;;;;;;27.26;54.80;96929.41;5023351;28;20056;-65
2022/08/05 06:53:18;;;;;;;7.60;5.82;;;;;;;27.59;53.23;96935.00;5024172;28;20057;-65
2022/08/05 06:55:54;;;;;;;7.78;6.97;;;;;;;27.73;52.85;96940.75;5024493;28;20153;-66
2022/08/05 06:58:22;;;;;;;12.65;9.38;;;;;;;27.95;52.47;96929.03;5024143;28;20059;-59
2022/08/05 07:01:03;;;;;;;5.28;4.78;;;;;;;28.30;48.39;96932.03;5024295;28;20049;-59
2022/08/05 07:03:31;;;;;;;8.10;4.63;;;;;;;28.36;48.18;96918.69;5028265;28;20535;-59
2022/08/05 07:06:01;;;;;;;6.05;4.80;;;;;;;28.49;45.26;96907.78;5028439;28;20581;-59
2022/08/05 07:08:43;;;;;;;5.45;4.82;;;;;;;28.50;43.99;96906.53;5028343;28;20136;-58
2022/08/05 07:11:14;;;;;;;7.10;4.53;;;;;;;28.54;44.13;96885.09;5027998;28;20053;-61
2022/08/05 07:19:34;;;;;;;4.70;4.30;;;;;;;28.77;44.73;96963.25;5027970;28;20065;-67
2022/08/05 07:22:21;;;;;;;3.92;3.63;;;;;;;29.03;43.05;96933.59;5026035;28;20512;-65
2022/08/05 07:25:00;;;;;;;5.47;4.05;;;;;;;29.03;43.71;96936.44;5028325;28;20072;-65
2022/08/05 07:27:51;;;;;;;5.18;4.68;;;;;;;29.28;43.28;96938.66;5027620;28;20104;-65
2022/08/05 07:30:26;;;;;;;6.20;5.60;;;;;;;29.47;41.52;96919.19;5028019;28;20057;-64
2022/08/05 07:32:58;;;;;;;6.45;4.07;;;;;;;29.70;41.13;96938.22;5026721;28;20165;-65
2022/08/05 07:35:25;;;;;;;5.20;4.63;;;;;;;29.83;40.43;96927.19;5026483;28;20067;-59
2022/08/05 07:38:13;;;;;;;4.57;4.18;;;;;;;29.81;41.71;96931.84;5026614;28;20049;-59
2022/08/05 07:41:01;;;;;;;4.57;4.20;;;;;;;29.97;42.14;96932.03;5027293;28;20057;-60
2022/08/05 07:43:48;;;;;;;5.47;4.65;;;;;;;30.09;40.80;96928.03;5027564;28;20056;-58
2022/08/05 07:46:15;;;;;;;5.43;4.20;;;;;;;30.17;39.67;96929.16;5026309;28;20084;-65
2022/08/05 07:48:55;;;;;;;4.97;4.03;;;;;;;29.78;40.30;96916.53;5027384;28;20084;-59
2022/08/05 07:51:33;;;;;;;4.63;4.15;;;;;;;29.63;39.95;96921.47;5026977;28;20061;-65
2022/08/05 07:54:03;;;;;;;4.22;3.92;;;;;;;29.35;40.57;96926.03;5025421;28;20053;-66
2022/08/05 07:56:30;;;;;;;4.22;3.83;;;;;;;29.95;39.83;96928.91;5026938;28;20136;-65
2022/08/05 07:59:17;;;;;;;4.60;4.20;;;;;;;30.37;39.98;96911.97;5027341;28;20083;-60
2022/08/05 08:01:48;;;;;;;8.05;4.70;;;;;;;30.76;39.38;96940.97;5027592;28;20053;-59
2022/08/05 08:04:23;;;;;;;6.25;4.60;;;;;;;30.74;38.50;96898.56;5027176;28;20050;-58
2022/08/05 08:07:04;;;;;;;5.20;4.57;;;;;;;31.02;38.63;96921.66;5026958;28;20590;-59
2022/08/05 08:09:33;;;;;;;5.22;4.72;;;;;;;30.62;37.69;96839.66;5027071;28;20060;-65
2022/08/05 08:12:00;;;;;;;4.53;4.22;;;;;;;31.30;37.72;96916.13;5026523;28;20515;-66
2022/08/05 08:14:43;;;;;;;4.30;4.00;;;;;;;31.39;37.72;96913.09;5026315;28;20170;-66
2022/08/05 08:17:13;;;;;;;5.77;5.33;;;;;;;30.48;39.15;96919.88;5027314;28;20053;-64
2022/08/05 08:19:43;;;;;;;4.25;3.95;;;;;;;31.08;37.97;96921.72;5026958;28;20103;-64
2022/08/05 08:22:30;;;;;;;6.50;4.70;;;;;;;31.12;37.79;96879.31;5026623;28;20054;-58
2022/08/05 08:24:58;;;;;;;4.13;3.83;;;;;;;30.54;37.72;96889.28;5027023;28;20053;-65
2022/08/05 08:27:29;;;;;;;4.72;4.20;;;;;;;30.51;37.81;96922.50;5013747;28;20064;-65
2022/08/05 08:30:12;;;;;;;4.90;4.35;;;;;;;30.16;38.23;96915.38;5014852;28;20409;-65
2022/08/05 08:32:58;;;;;;;7.55;4.70;;;;;;;30.18;38.36;96913.56;5007068;28;20058;-59
2022/08/05 08:35:30;;;;;;;4.88;4.43;;;;;;;30.55;38.93;96885.91;5007420;28;20072;-65
2022/08/05 08:38:08;;;;;;;5.28;4.60;;;;;;;30.26;38.10;96897.59;5005519;28;20073;-65
2022/08/05 08:40:42;;;;;;;4.80;4.40;;;;;;;30.53;37.92;96908.50;5006499;28;20050;-65
2022/08/05 08:43:18;;;;;;;5.60;5.18;;;;;;;30.28;38.15;96852.13;5007087;28;20444;-59
2022/08/05 08:46:05;;;;;;;5.80;5.13;;;;;;;31.05;37.17;96874.09;5006476;28;20057;-65
2022/08/05 08:48:39;;;;;;;5.18;4.70;;;;;;;31.81;36.09;96905.22;5006657;28;20046;-66
2022/08/05 08:51:30;;;;;;;5.63;5.20;;;;;;;31.80;35.82;96857.03;5006241;28;20529;-65
2022/08/05 08:54:17;;;;;;;5.72;5.20;;;;;;;31.90;35.81;96841.19;5006105;28;20046;-65
2022/08/05 08:56:43;;;;;;;5.60;5.10;;;;;;;32.51;35.43;96890.84;5006304;28;20049;-66
2022/08/05 08:59:18;;;;;;;5.32;4.38;;;;;;;31.94;35.48;96856.84;5005042;28;20492;-59
2022/08/05 09:01:46;;;;;;;4.22;3.90;;;;;;;31.67;35.42;96896.81;5005618;28;20525;-65
2022/08/05 09:04:23;;;;;;;5.43;4.95;;;;;;;31.23;36.28;96819.25;5006025;28;20139;-65
2022/08/05 09:06:56;;;;;;;9.57;4.80;;;;;;;32.31;34.98;96893.94;5006100;28;20065;-59
2022/08/05 09:09:23;;;;;;;5.50;5.05;;;;;;;32.23;35.48;96890.75;5006023;28;20476;-58
2022/08/05 09:11:51;;;;;;;4.82;4.43;;;;;;;31.31;35.53;96757.38;5004444;28;20046;-65
2022/08/05 09:14:25;;;;;;;6.00;5.55;;;;;;;32.59;35.63;96883.28;5006502;28;20137;-68
2022/08/05 09:17:13;;;;;;;4.75;4.45;;;;;;;31.92;34.79;96881.56;5005841;28;20112;-59
2022/08/05 09:20:01;;;;;;;7.05;6.40;;;;;;;31.58;36.09;96879.84;5005493;28;20527;-66
2022/08/05 09:23:02;;;;;;;5.05;4.65;;;;;;;31.42;35.49;96883.41;5005787;28;20053;-66
2022/08/05 09:25:32;;;;;;;5.13;4.80;;;;;;;31.28;36.46;96881.50;5004691;28;20444;-65
2022/08/05 09:28:23;;;;;;;4.82;4.43;;;;;;;31.46;35.72;96872.53;5005145;28;20216;-65
2022/08/05 09:31:04;;;;;;;6.45;4.90;;;;;;;32.23;35.07;96870.69;5005830;28;20137;-59
2022/08/05 09:34:00;;;;;;;10.13;7.18;;;;;;;32.47;34.21;96875.97;5004785;28;20053;-67
2022/08/05 09:36:48;;;;;;;5.68;5.20;;;;;;;32.42;34.61;96832.94;5006117;28;20056;-59
2022/08/05 09:39:24;;;;;;;4.80;4.50;;;;;;;31.26;34.83;96812.50;5006009;28;20476;-59
2022/08/05 09:42:10;;;;;;;6.00;5.43;;;;;;;32.16;34.69;96839.69;5005494;28;20157;-60
2022/08/05 09:44:50;;;;;;;6.90;5.10;;;;;;;32.95;34.22;96870.78;5006073;28;20069;-65
2022/08/05 09:47:19;;;;;;;8.68;6.28;;;;;;;33.03;34.14;96866.06;5005300;28;20050;-59
2022/08/05 09:49:51;;;;;;;5.55;5.05;;;;;;;33.42;33.29;96863.91;5005774;28;20049;-58
2022/08/05 09:52:33;;;;;;;5.38;4.97;;;;;;;32.31;34.33;96871.00;5005610;28;20045;-65
2022/08/05 09:55:09;;;;;;;6.85;5.15;;;;;;;33.04;32.98;96861.88;5005524;28;20464;-65
2022/08/05 09:57:56;;;;;;;5.85;5.35;;;;;;;33.36;32.28;96854.50;5005322;28;20054;-59
2022/08/05 10:00:25;;;;;;;6.20;5.45;;;;;;;32.50;33.86;96862.69;5005647;28;20053;-59
2022/08/05 10:02:53;;;;;;;5.57;5.05;;;;;;;31.79;35.10;96839.03;5005139;28;20101;-59
2022/08/05 10:05:26;;;;;;;7.70;4.90;;;;;;;32.27;33.73;96861.84;5005481;28;20474;-60
2022/08/05 10:07:58;;;;;;;5.28;4.65;;;;;;;32.39;33.49;96869.19;5005271;28;20057;-66
2022/08/05 10:10:46;;;;;;;7.03;5.40;;;;;;;31.67;34.34;96859.56;5005127;28;20489;-66
2022/08/05 10:13:30;;;;;;;4.95;4.65;;;;;;;32.28;33.79;96857.66;5005139;28;20053;-59
2022/08/05 10:16:34;;;;;;;6.15;4.93;;;;;;;32.58;33.41;96850.16;5005492;28;20072;-57
2022/08/05 10:19:19;;;;;;;4.68;4.38;;;;;;;33.32;32.71;96842.47;5005542;28;20535;-65
2022/08/05 10:21:57;;;;;;;5.22;4.82;;;;;;;33.89;31.35;96849.59;5005529;28;20058;-58
2022/08/05 10:24:25;;;;;;;5.53;4.95;;;;;;;33.52;31.00;96827.84;5005291;28;20046;-59
2022/08/05 10:26:55;;;;;;;5.03;4.63;;;;;;;33.90;31.08;96834.72;5004879;28;20049;-59
2022/08/05 10:29:28;;;;;;;8.90;7.55;;;;;;;34.29;30.46;96828.72;5005158;28;20049;-66
2022/08/05 10:32:15;;;;;;;6.80;6.10;;;;;;;34.79;30.08;96832.00;5005401;28;20516;-59
2022/08/05 10:35:02;;;;;;;5.00;4.60;;;;;;;33.45;31.11;96828.38;5003791;28;20108;-59
2022/08/05 10:37:32;;;;;;;4.93;4.63;;;;;;;32.46;32.74;96827.72;5004874;28;20137;-59
2022/08/05 10:40:30;;;;;;;5.63;5.07;;;;;;;32.97;32.36;96810.75;5005320;28;20429;-65
2022/08/05 10:43:05;;;;;;;8.10;6.68;;;;;;;33.75;31.08;96822.75;5004748;28;20550;-67
2022/08/05 10:45:36;;;;;;;4.78;4.47;;;;;;;34.13;31.05;96815.25;5003663;28;20052;-64
2022/08/05 10:48:33;;;;;;;6.10;4.57;;;;;;;33.54;31.47;96833.03;5005068;28;20064;-66
2022/08/05 10:51:21;;;;;;;5.57;4.90;;;;;;;33.43;30.45;96733.31;5004885;28;20515;-57
2022/08/05 10:53:59;;;;;;;4.70;4.40;;;;;;;33.29;31.35;96825.53;5004692;28;20076;-57
2022/08/05 10:56:56;;;;;;;5.55;5.10;;;;;;;33.57;31.80;96806.91;5004700;28;20049;-65
2022/08/05 10:59:28;;;;;;;5.68;5.18;;;;;;;34.00;31.63;96815.06;5004956;28;20057;-65
2022/08/05 11:02:16;;;;;;;6.60;5.97;;;;;;;33.62;31.70;96820.44;5004717;28;20054;-66
2022/08/05 11:05:07;;;;;;;7.63;6.78;;;;;;;33.56;31.07;96811.09;5004903;28;20147;-59
2022/08/05 11:07:56;;;;;;;9.70;7.13;;;;;;;33.43;31.24;96808.00;5004695;28;20066;-66
2022/08/05 11:10:32;;;;;;;4.28;3.97;;;;;;;33.49;30.53;96785.00;5004944;28;20112;-66
2022/08/05 11:12:58;;;;;;;10.15;7.25;;;;;;;33.64;30.83;96806.34;5004534;28;20046;-59
2022/08/05 11:15:29;;;;;;;5.60;5.20;;;;;;;34.09;30.73;96797.47;5004896;28;20136;-67
2022/08/05 11:18:29;;;;;;;5.63;3.97;;;;;;;33.73;30.97;96797.41;5003471;28;20123;-66
2022/08/05 11:21:01;;;;;;;;;;;;;;;34.19;29.96;96802.38;5003554;28;20073;-67
2022/08/05 11:23:53;;;;;;;7.60;4.93;;;;;;;34.43;29.42;96801.72;5004915;28;20580;-67
2022/08/05 11:26:39;;;;;;;4.28;3.72;;;;;;;34.09;30.61;96800.34;5003244;28;20559;-67
2022/08/05 11:29:35;;;;;;;6.13;4.88;;;;;;;34.21;30.39;96790.34;5004819;28;20064;-66
2022/08/05 11:32:28;;;;;;;5.35;4.63;;;;;;;33.67;30.76;96793.78;5004089;28;20081;-66
2022/08/05 11:34:56;;;;;;;5.20;4.72;;;;;;;33.64;31.45;96789.09;5004608;28;20453;-60
2022/08/05 11:37:35;;;;;;;7.15;4.85;;;;;;;33.09;31.50;96788.53;5004204;28;20512;-68
2022/08/05 11:41:01;;;;;;;4.57;4.28;;;;;;;34.00;30.96;96786.31;5004822;28;20833;-58
2022/08/05 11:43:59;;;;;;;5.03;4.53;;;;;;;33.41;31.62;96767.56;5003261;28;20483;-59
2022/08/05 11:46:39;;;;;;;6.30;4.47;;;;;;;33.66;32.01;96782.81;5003891;28;20617;-67
2022/08/05 11:49:26;;;;;;;5.90;5.43;;;;;;;33.71;31.46;96777.06;4988202;28;20051;-59
2022/08/05 11:51:53;;;;;;;5.38;4.90;;;;;;;33.95;31.33;96778.50;4987120;28;20529;-58
2022/08/05 11:54:35;;;;;;;5.82;5.25;;;;;;;33.96;30.93;96768.53;4988376;28;20097;-67
2022/08/05 11:57:03;;;;;;;6.68;4.88;;;;;;;34.04;30.58;96772.41;4986954;28;20556;-67
2022/08/05 11:59:50;;;;;;;4.63;4.32;;;;;;;34.44;30.21;96751.47;4988594;28;20503;-57
2022/08/05 12:02:17;;;;;;;5.15;4.85;;;;;;;34.27;30.59;96745.06;4988232;28;20073;-68
2022/08/05 12:05:00;;;;;;;7.10;4.22;;;;;;;32.68;32.23;96771.13;4988206;28;20054;-66
2022/08/05 12:07:36;;;;;;;4.47;4.18;;;;;;;32.76;31.71;96766.41;4986401;28;20057;-60
2022/08/05 12:10:27;;;;;;;5.38;4.03;;;;;;;32.73;30.42;96718.69;4987818;28;20124;-67
2022/08/05 12:13:11;;;;;;;4.18;3.85;;;;;;;33.08;31.39;96769.75;4987939;28;20050;-66
2022/08/05 12:15:44;;;;;;;4.63;4.20;;;;;;;33.23;31.93;96730.78;4988146;28;20151;-65
2022/08/05 12:18:28;;;;;;;4.93;4.45;;;;;;;32.70;31.78;96757.03;4986189;28;20156;-67
2022/08/05 12:21:13;;;;;;;4.65;4.32;;;;;;;32.81;31.90;96742.66;4987772;28;20051;-59
2022/08/05 12:24:02;;;;;;;5.55;4.80;;;;;;;33.36;31.64;96756.84;4987558;28;20113;-59
2022/08/05 12:26:32;;;;;;;5.57;4.40;;;;;;;33.61;31.49;96761.44;4986695;28;20054;-59
2022/08/05 12:28:59;;;;;;;5.07;4.63;;;;;;;33.59;32.17;96752.56;4987785;28;20050;-66